Time;durP1;ratioP1;P1;durP2;ratioP2;P2;SDS_P1;SDS_P2;PMS_P1;PMS_P2;Temp;Humidity;BMP_temperature;BMP_pressure;BME280_temperature;BME280_humidity;BME280_pressure;Samples;Min_cycle;Max_cycle;Signal;HPM_P1;HPM_P2
2023/07/11 00:01:13;;;;;;;12.10;7.70;;;;;;;16.60;93.32;100837.29;110699;1210;140385;-62
2023/07/11 00:03:39;;;;;;;14.30;6.80;;;;;;;16.58;93.46;100838.66;110847;1212;99583;-62
2023/07/11 00:06:09;;;;;;;11.00;6.90;;;;;;;16.56;93.61;100839.15;110853;1208;99047;-62
2023/07/11 00:08:39;;;;;;;15.40;7.80;;;;;;;16.53;93.72;100843.30;110746;1212;140597;-62
2023/07/11 00:11:09;;;;;;;12.90;7.60;;;;;;;16.51;94.07;100844.14;110809;1208;108273;-62
2023/07/11 00:13:35;;;;;;;12.70;8.00;;;;;;;16.48;93.73;100840.91;110772;1214;140690;-62
2023/07/11 00:16:04;;;;;;;11.90;6.50;;;;;;;16.48;93.66;100840.54;110900;1212;98946;-62
2023/07/11 00:18:29;;;;;;;11.50;8.00;;;;;;;16.46;93.62;100841.02;110646;1213;139660;-63
2023/07/11 00:20:54;;;;;;;14.80;8.20;;;;;;;16.45;93.85;100848.48;110861;1208;98930;-62
2023/07/11 00:23:20;;;;;;;17.90;8.80;;;;;;;16.45;93.88;100851.04;110849;1208;100285;-62
2023/07/11 00:25:45;;;;;;;15.10;9.30;;;;;;;16.45;93.77;100849.98;110723;1212;139123;-62
2023/07/11 00:28:11;;;;;;;13.40;9.00;;;;;;;16.44;93.68;100846.23;110910;1209;98957;-62
2023/07/11 00:30:40;;;;;;;13.60;9.30;;;;;;;16.44;93.66;100848.06;110652;1209;139044;-62
2023/07/11 00:33:05;;;;;;;16.30;9.40;;;;;;;16.42;93.61;100849.77;110842;1213;99050;-62
2023/07/11 00:35:30;;;;;;;15.60;8.40;;;;;;;16.43;94.01;100848.66;110732;1209;98936;-62
2023/07/11 00:37:55;;;;;;;22.00;10.00;;;;;;;16.40;94.02;100852.61;110783;1210;140744;-63
2023/07/11 00:40:21;;;;;;;19.20;9.50;;;;;;;16.38;93.97;100854.20;110797;1214;99025;-62
2023/07/11 00:42:52;;;;;;;16.40;9.20;;;;;;;16.38;93.78;100856.74;110707;1212;139805;-63
2023/07/11 00:45:55;;;;;;;12.60;7.80;;;;;;;16.37;93.80;100859.34;110775;1213;113483;-62
2023/07/11 00:48:22;;;;;;;13.50;9.60;;;;;;;16.34;94.06;100860.59;110671;1213;100879;-62
2023/07/11 00:50:50;;;;;;;11.70;8.80;;;;;;;16.33;94.11;100860.16;110845;1209;141222;-62
2023/07/11 00:53:16;;;;;;;21.70;9.70;;;;;;;16.30;94.01;100862.48;110971;1208;99045;-62
2023/07/11 00:55:43;;;;;;;20.10;9.60;;;;;;;16.28;94.13;100867.84;110703;1212;138915;-63
2023/07/11 00:58:09;;;;;;;17.10;9.20;;;;;;;16.27;94.24;100865.20;110831;1209;99641;-62
2023/07/11 01:00:34;;;;;;;11.70;8.70;;;;;;;16.25;94.50;100871.44;110653;1214;141017;-63
2023/07/11 01:02:59;;;;;;;14.10;9.40;;;;;;;16.25;95.24;100870.38;110768;1210;98971;-62
2023/07/11 01:05:25;;;;;;;12.20;7.50;;;;;;;16.21;95.69;100868.62;110865;1208;98920;-62
2023/07/11 01:07:50;;;;;;;18.00;9.90;;;;;;;16.18;95.98;100873.33;110736;1212;139438;-62
2023/07/11 01:10:15;;;;;;;19.70;10.40;;;;;;;16.15;95.90;100878.72;110756;1212;99010;-62
2023/07/11 01:12:47;;;;;;;16.10;9.70;;;;;;;16.14;95.84;100881.16;110733;1212;139846;-64
2023/07/11 01:15:13;;;;;;;18.20;10.80;;;;;;;16.13;95.91;100883.23;110818;1212;112335;-62
2023/07/11 01:17:39;;;;;;;25.10;12.50;;;;;;;16.11;95.96;100891.27;110787;1209;99037;-63
2023/07/11 01:20:08;;;;;;;17.10;10.80;;;;;;;16.10;95.92;100883.23;110712;1209;139572;-62
2023/07/11 01:22:36;;;;;;;17.30;9.00;;;;;;;16.08;95.87;100882.41;110875;1208;99094;-62
2023/07/11 01:25:08;;;;;;;19.50;10.80;;;;;;;16.08;96.64;100885.48;110714;1214;139515;-62
2023/07/11 01:27:34;;;;;;;15.40;12.30;;;;;;;16.06;96.72;100887.45;110798;1209;112954;-62
2023/07/11 01:30:03;;;;;;;21.00;12.50;;;;;;;16.04;96.69;100883.77;110807;1212;99451;-62
2023/07/11 01:32:29;;;;;;;21.20;12.80;;;;;;;16.05;96.76;100882.29;110751;1208;138972;-62
2023/07/11 01:34:54;;;;;;;22.10;11.20;;;;;;;16.04;96.87;100883.59;110639;1214;99003;-62
2023/07/11 01:37:19;;;;;;;22.10;12.50;;;;;;;16.05;97.20;100882.83;110767;1208;141201;-62
2023/07/11 01:39:45;;;;;;;22.30;14.00;;;;;;;16.03;97.09;100882.23;110726;1209;99003;-62
2023/07/11 01:42:10;;;;;;;21.90;13.90;;;;;;;16.02;96.98;100883.70;110821;1208;100251;-62
2023/07/11 01:44:35;;;;;;;20.60;15.40;;;;;;;16.03;97.04;100882.05;110724;1212;140128;-62
2023/07/11 01:47:02;;;;;;;22.30;14.40;;;;;;;16.02;97.13;100883.70;110857;1212;99004;-62
2023/07/11 01:49:28;;;;;;;23.10;14.20;;;;;;;16.02;97.21;100883.02;110889;1210;139048;-62
2023/07/11 01:52:07;;;;;;;27.30;16.80;;;;;;;16.02;97.10;100889.52;110759;1209;98934;-62
2023/07/11 01:54:32;;;;;;;24.50;15.30;;;;;;;16.02;97.16;100888.05;110661;1209;140806;-62
2023/07/11 01:56:59;;;;;;;31.10;15.60;;;;;;;16.03;97.25;100890.30;110854;1212;99113;-62
2023/07/11 01:59:25;;;;;;;29.10;18.20;;;;;;;16.04;97.37;100893.31;110888;1212;99019;-63
2023/07/11 02:01:51;;;;;;;23.60;14.90;;;;;;;16.05;97.42;100894.15;111014;1211;139006;-62
2023/07/11 02:04:21;;;;;;;24.40;16.20;;;;;;;16.06;97.39;100895.17;110809;1210;98165;-62
2023/07/11 02:06:47;;;;;;;21.40;14.50;;;;;;;16.06;97.66;100893.73;110663;1209;139790;-62
2023/07/11 02:09:12;;;;;;;23.20;15.20;;;;;;;16.06;97.73;100891.96;110880;1208;98934;-62
2023/07/11 02:11:37;;;;;;;31.00;16.20;;;;;;;16.06;97.84;100886.89;110781;1213;99760;-62
2023/07/11 02:14:03;;;;;;;17.50;11.80;;;;;;;16.06;97.88;100884.02;110768;1212;139601;-62
2023/07/11 02:16:28;;;;;;;20.70;14.00;;;;;;;16.07;98.36;100887.56;110946;1212;98945;-62
2023/07/11 02:18:53;;;;;;;23.80;15.20;;;;;;;16.08;98.68;100887.70;110707;1208;140472;-62
2023/07/11 02:21:18;;;;;;;20.40;14.20;;;;;;;16.08;98.88;100886.96;110825;1212;98955;-62
2023/07/11 02:23:43;;;;;;;25.90;17.60;;;;;;;16.09;99.25;100889.55;110862;1209;98980;-62
2023/07/11 02:26:09;;;;;;;30.10;18.80;;;;;;;16.09;99.05;100891.19;110770;1212;139677;-62
2023/07/11 02:28:34;;;;;;;32.60;18.10;;;;;;;16.10;99.22;100893.45;110857;1208;98927;-62
2023/07/11 02:30:59;;;;;;;29.10;19.00;;;;;;;16.09;99.48;100901.10;110702;1213;139806;-62
2023/07/11 02:33:24;;;;;;;31.40;19.90;;;;;;;16.10;99.62;100901.39;110922;1209;98964;-62
2023/07/11 02:35:50;;;;;;;31.30;18.60;;;;;;;16.12;99.78;100901.15;110750;1212;99043;-64
2023/07/11 02:38:15;;;;;;;30.70;19.00;;;;;;;16.12;100.00;100902.17;110638;1212;139598;-62
2023/07/11 02:40:40;;;;;;;34.10;21.60;;;;;;;16.11;100.00;100905.70;110854;1208;98926;-63
2023/07/11 02:43:05;;;;;;;43.10;22.50;;;;;;;16.13;100.00;100907.71;110754;1213;139455;-62
2023/07/11 02:45:30;;;;;;;38.90;23.10;;;;;;;16.12;100.00;100908.52;110898;1212;99114;-62
2023/07/11 02:47:56;;;;;;;37.90;20.60;;;;;;;16.11;100.00;100908.73;110791;1213;99018;-62
2023/07/11 02:50:21;;;;;;;34.40;22.40;;;;;;;16.13;100.00;100907.71;110756;1208;140335;-62
2023/07/11 02:52:48;;;;;;;34.90;21.00;;;;;;;16.13;100.00;100910.05;110738;1212;99053;-62
2023/07/11 02:55:13;;;;;;;31.60;20.00;;;;;;;16.12;100.00;100915.69;110609;1208;140690;-62
2023/07/11 02:57:43;;;;;;;42.10;23.60;;;;;;;16.11;100.00;100911.80;110901;1212;98955;-62
2023/07/11 03:00:09;;;;;;;37.30;21.20;;;;;;;16.12;100.00;100910.83;110832;1212;99780;-62
2023/07/11 03:02:35;;;;;;;42.90;25.70;;;;;;;16.14;100.00;100907.86;110714;1211;139857;-62
2023/07/11 03:05:01;;;;;;;43.00;22.90;;;;;;;16.14;100.00;100902.40;110822;1210;99051;-62
2023/07/11 03:07:26;;;;;;;35.40;21.70;;;;;;;16.16;100.00;100904.13;110774;1214;139465;-62
2023/07/11 03:09:52;;;;;;;35.20;21.30;;;;;;;16.15;100.00;100906.33;110782;1214;99015;-63
2023/07/11 03:12:17;;;;;;;36.80;23.30;;;;;;;16.17;100.00;100912.52;110844;1209;99051;-63
2023/07/11 03:14:42;;;;;;;34.70;21.00;;;;;;;16.20;100.00;100909.99;110676;1210;140335;-62
2023/07/11 03:17:07;;;;;;;33.60;19.90;;;;;;;16.19;100.00;100901.02;110756;1212;99012;-62
2023/07/11 03:19:33;;;;;;;27.30;18.80;;;;;;;16.20;100.00;100903.48;110691;1210;139931;-62
2023/07/11 03:21:58;;;;;;;39.80;22.30;;;;;;;16.20;100.00;100902.80;110838;1214;99033;-62
2023/07/11 03:24:23;;;;;;;35.40;21.80;;;;;;;16.21;100.00;100908.66;110945;1210;99575;-62
2023/07/11 03:26:48;;;;;;;31.70;18.70;;;;;;;16.23;100.00;100906.89;110720;1209;141338;-62
2023/07/11 03:29:14;;;;;;;40.00;24.20;;;;;;;16.24;100.00;100908.44;110791;1214;99093;-62
2023/07/11 03:31:41;;;;;;;40.80;23.40;;;;;;;16.28;100.00;100908.23;110877;1210;139437;-63
2023/07/11 03:34:07;;;;;;;38.80;21.90;;;;;;;16.31;100.00;100914.02;110827;1212;99027;-62
2023/07/11 03:36:32;;;;;;;33.50;20.40;;;;;;;16.33;100.00;100910.95;110686;1212;139605;-62
2023/07/11 03:38:57;;;;;;;34.80;20.60;;;;;;;16.35;100.00;100915.02;110778;1215;99023;-63
2023/07/11 03:41:22;;;;;;;30.30;20.50;;;;;;;16.37;100.00;100917.36;110843;1209;99045;-62
2023/07/11 03:43:48;;;;;;;39.70;22.60;;;;;;;16.41;100.00;100921.98;110711;1212;140256;-62
2023/07/11 03:46:13;;;;;;;37.50;18.90;;;;;;;16.46;100.00;100921.69;110801;1214;99058;-62
2023/07/11 03:48:38;;;;;;;32.90;21.30;;;;;;;16.49;100.00;100925.45;110711;1209;141857;-62
2023/07/11 03:51:03;;;;;;;35.50;19.50;;;;;;;16.51;100.00;100929.09;110705;1222;99150;-62
2023/07/11 03:53:28;;;;;;;25.20;14.70;;;;;;;16.54;100.00;100929.29;110772;1212;99377;-62
2023/07/11 03:55:54;;;;;;;26.20;16.70;;;;;;;16.55;100.00;100927.22;110546;1209;140736;-62
2023/07/11 03:58:19;;;;;;;23.70;16.70;;;;;;;16.59;100.00;100929.19;110757;1209;99091;-62
2023/07/11 04:00:46;;;;;;;33.40;16.80;;;;;;;16.61;100.00;100924.87;110669;1209;139957;-62
2023/07/11 04:03:11;;;;;;;27.70;18.90;;;;;;;16.61;100.00;100923.66;110792;1210;107634;-63
2023/07/11 04:05:37;;;;;;;31.80;20.10;;;;;;;16.61;100.00;100922.21;110567;1212;98949;-62
2023/07/11 04:08:03;;;;;;;32.20;18.10;;;;;;;16.64;100.00;100921.28;110628;1209;139230;-62
2023/07/11 04:10:28;;;;;;;28.50;17.10;;;;;;;16.65;100.00;100926.08;110847;1209;98945;-62
2023/07/11 04:12:53;;;;;;;27.00;15.70;;;;;;;16.67;100.00;100928.85;110735;1212;141628;-63
2023/07/11 04:15:19;;;;;;;23.10;14.80;;;;;;;16.64;100.00;100927.61;110838;1209;100248;-64
2023/07/11 04:17:44;;;;;;;29.20;16.80;;;;;;;16.63;100.00;100924.06;110766;1212;99045;-63
2023/07/11 04:20:10;;;;;;;25.70;14.20;;;;;;;16.62;100.00;100930.38;110734;1209;140254;-63
2023/07/11 04:22:36;;;;;;;23.10;15.90;;;;;;;16.61;100.00;100933.17;110827;1209;98932;-63
2023/07/11 04:25:02;;;;;;;31.00;17.10;;;;;;;16.61;100.00;100931.00;110644;1212;139961;-64
2023/07/11 04:27:27;;;;;;;26.20;14.60;;;;;;;16.64;100.00;100931.96;110838;1209;99585;-64
2023/07/11 04:29:52;;;;;;;29.60;18.20;;;;;;;16.67;100.00;100934.77;110692;1209;98988;-63
2023/07/11 04:32:18;;;;;;;21.60;15.30;;;;;;;16.72;100.00;100940.29;110723;1212;139755;-64
2023/07/11 04:34:43;;;;;;;30.10;18.00;;;;;;;16.77;100.00;100937.94;110797;1209;112153;-63
2023/07/11 04:37:08;;;;;;;23.90;14.50;;;;;;;16.78;100.00;100940.22;110668;1212;141091;-64
2023/07/11 04:39:33;;;;;;;26.10;15.10;;;;;;;16.80;100.00;100938.63;110821;1209;99070;-63
2023/07/11 04:41:59;;;;;;;27.50;16.80;;;;;;;16.84;100.00;100939.49;110775;1212;99057;-64
2023/07/11 04:44:26;;;;;;;25.20;17.30;;;;;;;16.91;100.00;100941.40;110766;1208;141459;-64
2023/07/11 04:46:51;;;;;;;23.30;14.30;;;;;;;16.98;100.00;100946.34;110734;1212;110233;-63
2023/07/11 04:49:16;;;;;;;24.40;15.70;;;;;;;16.95;100.00;100947.81;110621;1212;140182;-64
2023/07/11 04:51:42;;;;;;;22.50;13.20;;;;;;;16.94;100.00;100948.58;110840;1212;99125;-63
2023/07/11 04:54:07;;;;;;;26.90;14.90;;;;;;;16.95;100.00;100950.00;110742;1212;99027;-64
2023/07/11 04:56:32;;;;;;;23.30;14.80;;;;;;;16.97;100.00;100953.29;110668;1209;139944;-63
2023/07/11 04:58:59;;;;;;;22.90;14.80;;;;;;;17.02;100.00;100954.35;110832;1212;98974;-64
2023/07/11 05:01:24;;;;;;;24.90;14.80;;;;;;;17.07;100.00;100956.58;110641;1209;139462;-63
2023/07/11 05:03:50;;;;;;;25.70;14.00;;;;;;;17.10;100.00;100950.93;110818;1212;98954;-63
2023/07/11 05:06:15;;;;;;;24.20;14.90;;;;;;;17.12;100.00;100949.02;110769;1212;99058;-64
2023/07/11 05:08:41;;;;;;;21.10;15.50;;;;;;;17.15;100.00;100947.54;110681;1209;139712;-63
2023/07/11 05:11:16;;;;;;;27.60;14.90;;;;;;;17.24;100.00;100940.27;110933;1209;100131;-64
2023/07/11 05:13:44;;;;;;;23.30;14.30;;;;;;;17.28;100.00;100942.89;110585;1214;139927;-64
2023/07/11 05:16:13;;;;;;;27.20;14.30;;;;;;;17.34;100.00;100945.75;110652;1208;100115;-64
2023/07/11 05:18:42;;;;;;;24.00;12.90;;;;;;;17.39;99.99;100948.31;110734;1212;140196;-64
2023/07/11 05:21:12;;;;;;;26.10;14.40;;;;;;;17.44;99.97;100942.36;110911;1210;104529;-63
2023/07/11 05:23:38;;;;;;;19.30;13.20;;;;;;;17.49;99.94;100946.37;110825;1212;98996;-64
2023/07/11 05:26:05;;;;;;;19.70;13.30;;;;;;;17.56;99.80;100945.19;110638;1209;139148;-63
2023/07/11 05:28:31;;;;;;;20.40;12.60;;;;;;;17.65;99.65;100944.98;110797;1212;99032;-64
2023/07/11 05:30:56;;;;;;;20.70;12.40;;;;;;;17.70;99.54;100945.15;110642;1209;140892;-63
2023/07/11 05:33:23;;;;;;;25.80;13.10;;;;;;;17.75;99.50;100949.83;110682;1210;99081;-64
2023/07/11 05:36:08;;;;;;;22.10;13.20;;;;;;;17.87;99.49;100949.58;110823;1208;98945;-65
2023/07/11 05:38:34;;;;;;;15.10;9.60;;;;;;;17.99;99.15;100943.86;110580;1212;139238;-63
2023/07/11 05:41:00;;;;;;;14.00;9.70;;;;;;;17.99;98.80;100937.94;110669;1210;99051;-64
2023/07/11 05:43:26;;;;;;;14.80;11.10;;;;;;;18.00;98.82;100940.20;110440;1212;139125;-64
2023/07/11 05:45:51;;;;;;;16.30;10.90;;;;;;;18.11;98.96;100938.70;110689;1212;99862;-64
2023/07/11 05:48:16;;;;;;;20.00;11.80;;;;;;;18.22;98.77;100940.42;110683;1209;98949;-63
2023/07/11 05:50:41;;;;;;;14.70;10.20;;;;;;;18.27;98.24;100943.45;110633;1212;141455;-64
2023/07/11 05:53:07;;;;;;;20.00;10.60;;;;;;;18.28;98.08;100947.73;110713;1209;99008;-64
2023/07/11 05:55:32;;;;;;;12.20;9.20;;;;;;;18.30;97.89;100943.63;110583;1212;139985;-64
2023/07/11 05:57:57;;;;;;;15.40;9.30;;;;;;;18.31;97.60;100943.77;110615;1212;98994;-64
2023/07/11 06:00:22;;;;;;;13.00;9.00;;;;;;;18.35;97.65;100944.15;110558;1209;100742;-65
2023/07/11 06:02:48;;;;;;;18.00;9.30;;;;;;;18.42;97.46;100947.63;110572;1212;139416;-64
2023/07/11 06:05:13;;;;;;;15.10;9.20;;;;;;;18.45;96.96;100955.92;110681;1212;99058;-65
2023/07/11 06:07:39;;;;;;;14.20;10.40;;;;;;;18.51;96.73;100960.78;110668;1209;139559;-64
2023/07/11 06:10:05;;;;;;;15.80;9.10;;;;;;;18.52;96.36;100963.95;110753;1209;99085;-65
2023/07/11 06:12:31;;;;;;;16.80;9.50;;;;;;;18.52;96.14;100966.34;110636;1210;139891;-62
2023/07/11 06:14:56;;;;;;;11.40;8.20;;;;;;;18.49;95.86;100966.52;110661;1208;99092;-64
2023/07/11 06:17:22;;;;;;;13.50;9.60;;;;;;;18.45;95.60;100962.80;110556;1212;104585;-64
2023/07/11 06:19:47;;;;;;;15.00;9.10;;;;;;;18.43;95.61;100964.06;110466;1215;140048;-64
2023/07/11 06:22:12;;;;;;;16.70;10.00;;;;;;;18.50;95.54;100961.91;110653;1215;99086;-64
2023/07/11 06:24:38;;;;;;;14.00;8.30;;;;;;;18.63;95.51;100960.31;110447;1209;139775;-64
2023/07/11 06:27:04;;;;;;;12.40;8.30;;;;;;;18.70;95.19;100958.77;110693;1215;98917;-64
2023/07/11 06:29:31;;;;;;;14.30;9.00;;;;;;;18.80;95.11;100957.09;110770;1215;99121;-64
2023/07/11 06:31:57;;;;;;;15.20;9.50;;;;;;;18.89;94.80;100956.27;110706;1209;139413;-63
2023/07/11 06:34:22;;;;;;;15.00;8.70;;;;;;;18.96;94.48;100953.70;110730;1209;98998;-64
2023/07/11 06:36:47;;;;;;;17.50;9.20;;;;;;;18.94;94.00;100958.02;110640;1210;141015;-64
2023/07/11 06:39:13;;;;;;;14.40;8.30;;;;;;;18.86;93.65;100958.30;110686;1209;97911;-64
2023/07/11 06:41:38;;;;;;;10.70;8.70;;;;;;;18.76;93.13;100955.19;110783;1212;99060;-64
2023/07/11 06:44:06;;;;;;;12.10;8.20;;;;;;;18.72;93.17;100957.65;110746;1210;141007;-64
2023/07/11 06:46:34;;;;;;;13.20;9.30;;;;;;;18.74;92.98;100953.69;110679;1212;99117;-64
2023/07/11 06:49:00;;;;;;;10.90;6.70;;;;;;;18.83;92.85;100950.39;110652;1212;139129;-64
2023/07/11 06:51:25;;;;;;;16.80;6.70;;;;;;;18.92;92.78;100952.24;110823;1212;99040;-64
2023/07/11 06:53:50;;;;;;;14.30;7.40;;;;;;;19.06;92.93;100954.41;110715;1209;99054;-63
2023/07/11 06:56:16;;;;;;;9.50;6.80;;;;;;;19.20;92.68;100951.45;110579;1212;140657;-61
2023/07/11 06:58:41;;;;;;;15.80;8.20;;;;;;;19.34;92.42;100954.73;110671;1208;99022;-61
2023/07/11 07:01:06;;;;;;;12.90;8.60;;;;;;;19.44;92.21;100952.51;110641;1210;139006;-62
2023/07/11 07:03:32;;;;;;;16.90;7.90;;;;;;;19.50;91.84;100952.77;110671;1210;99037;-61
2023/07/11 07:06:03;;;;;;;11.10;6.80;;;;;;;19.49;91.39;100956.11;110921;1209;99002;-61
2023/07/11 07:08:29;;;;;;;14.00;6.90;;;;;;;19.46;91.13;100956.16;110693;1224;138780;-61
2023/07/11 07:10:54;;;;;;;12.10;6.30;;;;;;;19.45;91.08;100955.67;110571;1209;99135;-64
2023/07/11 07:13:23;;;;;;;13.60;6.80;;;;;;;19.46;90.84;100950.69;110658;1212;139642;-64
2023/07/11 07:15:51;;;;;;;13.30;8.30;;;;;;;19.52;90.60;100952.09;110941;1209;99590;-63
2023/07/11 07:18:17;;;;;;;12.50;6.90;;;;;;;19.60;90.32;100947.68;110707;1208;99059;-64
2023/07/11 07:20:44;;;;;;;8.20;6.00;;;;;;;19.63;90.07;100947.80;110545;1209;138718;-64
2023/07/11 07:23:09;;;;;;;14.20;7.30;;;;;;;19.70;90.00;100945.07;110896;1210;99617;-64
2023/07/11 07:25:35;;;;;;;12.20;6.80;;;;;;;19.77;89.57;100938.77;110808;1209;140121;-64
2023/07/11 07:28:00;;;;;;;9.10;6.10;;;;;;;19.81;89.39;100941.73;110845;1212;99031;-63
2023/07/11 07:30:26;;;;;;;9.00;6.00;;;;;;;19.83;89.06;100943.23;110677;1210;139979;-64
2023/07/11 07:32:51;;;;;;;12.30;5.80;;;;;;;19.80;88.64;100937.80;110584;1212;99019;-64
2023/07/11 07:35:16;;;;;;;9.90;5.70;;;;;;;19.81;88.48;100934.81;110679;1210;98996;-64
2023/07/11 07:37:41;;;;;;;9.20;6.30;;;;;;;19.85;88.46;100930.55;110590;1209;139492;-64
2023/07/11 07:40:07;;;;;;;7.10;4.80;;;;;;;19.88;88.29;100924.88;110756;1212;99062;-63
2023/07/11 07:42:33;;;;;;;8.30;4.90;;;;;;;19.90;87.03;100924.36;110686;1210;139818;-63
2023/07/11 07:44:58;;;;;;;9.40;5.30;;;;;;;19.90;87.16;100919.24;110752;1212;99030;-62
2023/07/11 07:47:23;;;;;;;18.30;5.20;;;;;;;19.90;86.70;100912.05;110781;1210;98948;-62
2023/07/11 07:49:49;;;;;;;7.70;5.20;;;;;;;19.91;86.37;100912.47;110620;1212;139232;-62
2023/07/11 07:52:14;;;;;;;8.70;5.00;;;;;;;19.96;86.29;100913.73;110773;1212;98999;-62
2023/07/11 07:54:39;;;;;;;6.80;4.10;;;;;;;20.04;86.05;100908.71;110631;1209;139653;-62
2023/07/11 07:57:05;;;;;;;11.10;5.10;;;;;;;20.14;86.08;100906.50;110808;1212;101383;-64
2023/07/11 07:59:30;;;;;;;7.10;4.10;;;;;;;20.21;85.93;100904.09;110679;1212;99697;-63
2023/07/11 08:01:56;;;;;;;6.30;4.00;;;;;;;20.29;85.74;100905.98;110623;1209;140546;-63
2023/07/11 08:04:21;;;;;;;6.20;4.00;;;;;;;20.33;84.99;100907.67;110757;1212;99012;-63
2023/07/11 08:06:47;;;;;;;4.20;3.20;;;;;;;20.31;84.13;100910.95;110585;1210;138915;-63
2023/07/11 08:09:12;;;;;;;10.30;3.70;;;;;;;20.25;83.62;100911.20;110737;1212;99123;-63
2023/07/11 08:11:37;;;;;;;6.60;3.50;;;;;;;20.27;83.87;100907.64;110752;1212;98964;-63
2023/07/11 08:14:03;;;;;;;3.80;2.80;;;;;;;20.33;82.88;100908.95;110670;1209;141072;-63
2023/07/11 08:16:29;;;;;;;7.00;3.40;;;;;;;20.38;82.34;100903.51;110758;1209;98933;-63
2023/07/11 08:18:55;;;;;;;8.30;3.40;;;;;;;20.45;82.17;100908.72;110730;1212;140172;-63
2023/07/11 08:21:20;;;;;;;4.10;2.80;;;;;;;20.53;81.71;100908.30;110859;1209;98933;-64
2023/07/11 08:23:46;;;;;;;5.70;3.80;;;;;;;20.59;80.52;100913.23;110715;1209;99059;-63
2023/07/11 08:26:11;;;;;;;7.90;4.30;;;;;;;20.65;79.54;100909.48;110697;1212;139476;-63
2023/07/11 08:28:36;;;;;;;10.60;4.80;;;;;;;20.71;79.19;100914.39;110610;1210;98943;-63
2023/07/11 08:31:04;;;;;;;7.00;4.00;;;;;;;20.78;78.99;100914.21;110573;1209;139268;-63
2023/07/11 08:33:30;;;;;;;5.90;4.10;;;;;;;20.81;78.91;100918.84;110823;1212;99013;-65
2023/07/11 08:35:56;;;;;;;11.00;3.90;;;;;;;20.90;78.99;100917.88;110786;1213;98939;-63
2023/07/11 08:38:22;;;;;;;4.50;3.40;;;;;;;20.97;78.00;100913.28;110679;1210;140207;-63
2023/07/11 08:40:48;;;;;;;4.10;2.70;;;;;;;20.98;76.67;100913.64;110837;1212;99028;-62
2023/07/11 08:43:19;;;;;;;4.50;3.30;;;;;;;21.03;75.85;100915.90;110716;1212;139460;-63
2023/07/11 08:45:59;;;;;;;6.70;3.30;;;;;;;21.14;75.42;100912.33;110808;1212;99417;-61
2023/07/11 08:48:32;;;;;;;6.70;3.60;;;;;;;21.23;75.35;100907.58;110739;1210;99036;-63
2023/07/11 08:51:04;;;;;;;12.20;4.60;;;;;;;21.34;75.20;100907.75;110908;1210;99002;-61
2023/07/11 08:53:47;;;;;;;4.80;3.30;;;;;;;21.43;74.94;100902.95;110815;1212;104418;-63
2023/07/11 08:56:19;;;;;;;4.20;3.10;;;;;;;21.55;74.15;100909.92;110613;1209;140545;-64
2023/07/11 08:58:47;;;;;;;8.50;3.20;;;;;;;21.59;73.13;100908.14;110675;1212;99167;-63
2023/07/11 09:01:36;;;;;;;4.20;3.40;;;;;;;21.61;72.83;100908.54;110581;1210;140063;-61
2023/07/11 09:04:03;;;;;;;12.10;3.50;;;;;;;21.62;72.86;100905.51;110743;1212;98935;-62
2023/07/11 09:06:54;;;;;;;6.10;2.70;;;;;;;21.68;72.93;100905.02;110727;1209;139603;-65
2023/07/11 09:09:19;;;;;;;5.10;2.80;;;;;;;21.74;72.36;100901.41;110674;1208;99024;-62
2023/07/11 09:11:57;;;;;;;4.70;2.50;;;;;;;21.83;71.64;100901.19;110686;1210;99035;-61
2023/07/11 09:15:04;;;;;;;8.60;2.30;;;;;;;21.81;70.95;100905.89;110646;1209;138303;-61
2023/07/11 09:17:58;;;;;;;5.00;2.90;;;;;;;21.77;70.26;100907.52;110821;1208;99027;-62
2023/07/11 09:20:49;;;;;;;6.70;3.00;;;;;;;21.72;69.30;100903.55;110557;1209;139535;-62
2023/07/11 09:23:47;;;;;;;5.80;2.70;;;;;;;21.75;68.82;100903.48;110728;1209;99057;-62
2023/07/11 09:26:43;;;;;;;4.20;2.60;;;;;;;21.81;68.44;100894.77;110577;1209;138918;-62
2023/07/11 09:29:08;;;;;;;7.10;3.00;;;;;;;21.90;68.70;100894.38;110747;1212;99367;-61
2023/07/11 09:31:40;;;;;;;5.20;2.70;;;;;;;22.03;68.42;100889.97;110602;1210;138578;-61
2023/07/11 09:34:18;;;;;;;5.40;2.90;;;;;;;22.08;66.27;100886.13;111016;1209;105504;-61
2023/07/11 09:36:46;;;;;;;3.30;2.80;;;;;;;22.17;66.03;100888.74;110372;1209;138923;-61
2023/07/11 09:39:24;;;;;;;7.90;3.00;;;;;;;22.22;66.18;100894.15;110404;1212;99444;-62
2023/07/11 09:42:19;;;;;;;3.00;2.60;;;;;;;22.26;66.11;100894.09;110275;1209;99002;-61
2023/07/11 09:45:01;;;;;;;7.20;3.00;;;;;;;22.34;65.59;100892.86;110235;1208;139985;-62
2023/07/11 09:47:30;;;;;;;4.80;3.30;;;;;;;22.39;65.17;100895.51;110540;1209;104625;-62
2023/07/11 09:49:57;;;;;;;6.10;2.50;;;;;;;22.38;64.81;100891.41;110812;1210;138468;-61
2023/07/11 09:52:26;;;;;;;2.70;2.20;;;;;;;22.40;64.80;100883.43;110421;1212;99025;-62
2023/07/11 09:54:53;;;;;;;6.40;2.90;;;;;;;22.48;64.35;100880.94;111939;1212;140006;-62
2023/07/11 09:57:19;;;;;;;11.80;3.10;;;;;;;22.52;63.91;100882.71;110822;1209;98920;-61
2023/07/11 09:59:53;;;;;;;2.40;2.10;;;;;;;22.54;63.60;100885.65;110428;1212;99003;-61
2023/07/11 10:02:18;;;;;;;3.10;2.30;;;;;;;22.61;63.47;100883.75;110206;1212;140487;-61
2023/07/11 10:04:45;;;;;;;4.80;2.50;;;;;;;22.61;62.77;100879.70;110358;1212;99849;-61
2023/07/11 10:07:15;;;;;;;7.50;2.80;;;;;;;22.61;62.44;100878.60;110331;1212;141994;-62
2023/07/11 10:09:48;;;;;;;4.20;2.60;;;;;;;22.68;62.74;100875.75;110334;1212;99670;-62
2023/07/11 10:12:23;;;;;;;7.50;2.90;;;;;;;22.74;62.78;100873.59;110439;1212;105928;-62
2023/07/11 10:14:58;;;;;;;4.90;2.40;;;;;;;22.81;62.79;100874.96;110731;1212;139382;-68
2023/07/11 10:17:33;;;;;;;10.70;1.70;;;;;;;22.85;60.92;100876.83;110403;1209;99726;-68
2023/07/11 10:20:01;;;;;;;7.80;1.80;;;;;;;22.90;59.86;100872.72;110424;1209;139979;-68
2023/07/11 10:22:29;;;;;;;7.00;2.10;;;;;;;22.99;59.18;100866.23;110391;1209;99063;-68
2023/07/11 10:25:14;;;;;;;5.00;2.10;;;;;;;23.03;59.11;100862.97;110361;1212;139456;-69
2023/07/11 10:27:41;;;;;;;7.80;2.00;;;;;;;23.09;58.41;100864.58;110430;1208;99136;-68
2023/07/11 10:30:17;;;;;;;2.60;1.80;;;;;;;23.16;57.87;100867.98;110403;1212;99277;-67
2023/07/11 10:32:48;;;;;;;7.00;2.10;;;;;;;23.19;57.92;100858.00;110680;1210;139889;-68
2023/07/11 10:35:21;;;;;;;5.40;1.90;;;;;;;23.25;57.11;100856.20;110457;1212;99559;-66
2023/07/11 10:37:53;;;;;;;8.10;1.90;;;;;;;23.41;57.05;100858.27;110296;1209;138316;-66
2023/07/11 10:40:30;;;;;;;5.60;1.90;;;;;;;23.58;55.54;100857.77;111202;1209;98690;-67
2023/07/11 10:43:11;;;;;;;3.40;1.60;;;;;;;23.67;54.94;100853.80;110281;1209;139533;-68
2023/07/11 10:45:43;;;;;;;6.50;2.10;;;;;;;23.75;55.08;100855.09;110488;1212;99031;-68
2023/07/11 10:48:24;;;;;;;6.20;2.00;;;;;;;23.84;55.19;100848.02;111033;1212;98957;-69
2023/07/11 10:50:59;;;;;;;;;;;;;;;23.96;55.43;100841.54;110390;1208;139598;-68
2023/07/11 10:53:33;;;;;;;3.60;1.70;;;;;;;24.06;55.10;100848.40;110430;1212;99166;-69
2023/07/11 10:56:05;;;;;;;4.70;1.70;;;;;;;24.03;53.91;100843.77;110269;1209;141064;-69
2023/07/11 10:58:31;;;;;;;7.30;1.40;;;;;;;24.01;52.49;100844.38;110409;1209;98971;-68
2023/07/11 11:01:21;;;;;;;3.60;1.30;;;;;;;24.05;51.63;100846.33;110525;1208;142751;-68
2023/07/11 11:03:48;;;;;;;4.00;1.30;;;;;;;24.11;51.41;100834.02;110505;1209;104100;-67
2023/07/11 11:06:37;;;;;;;3.00;1.30;;;;;;;24.19;51.29;100831.95;110549;1209;99087;-67